createdAt,value
2018-01-16T00:00:15.202Z,77.79
2018-01-16T00:01:15.198Z,76.93
2018-01-16T00:02:15.192Z,76.46
2018-01-16T00:03:15.184Z,76.37
2018-01-16T00:04:15.181Z,77.31
2018-01-16T00:05:15.176Z,77.89
2018-01-16T00:06:15.170Z,78.08
2018-01-16T00:07:15.164Z,78.83
2018-01-16T00:08:15.159Z,78.74
2018-01-16T00:09:15.155Z,78.74
2018-01-16T00:10:15.151Z,78.83
2018-01-16T00:11:15.143Z,78.83
2018-01-16T00:12:15.138Z,78.55
2018-01-16T00:13:15.134Z,78.17
2018-01-16T00:14:15.129Z,79.03
2018-01-16T00:15:15.125Z,79.22
2018-01-16T00:16:15.118Z,79.03
2018-01-16T00:17:15.112Z,78.83
2018-01-16T00:18:15.108Z,79.03
2018-01-16T00:19:15.101Z,79.31
2018-01-16T00:20:15.096Z,79.97
2018-01-16T00:21:15.093Z,79.60
2018-01-16T00:22:15.087Z,79.41
2018-01-16T00:23:15.080Z,78.55
2018-01-16T00:24:15.077Z,78.74
2018-01-16T00:25:15.072Z,79.12
2018-01-16T00:26:15.067Z,79.22
2018-01-16T00:27:15.061Z,79.60
2018-01-16T00:28:15.056Z,79.69
2018-01-16T00:29:15.050Z,80.35
2018-01-16T00:30:15.045Z,81.12
2018-01-16T00:31:15.039Z,81.12
2018-01-16T00:32:15.034Z,81.49
2018-01-16T00:33:15.029Z,81.30
2018-01-16T00:34:15.024Z,81.59
2018-01-16T00:35:15.020Z,81.21
2018-01-16T00:36:15.014Z,82.35
2018-01-16T00:37:15.009Z,83.20
2018-01-16T00:38:15.004Z,83.39
2018-01-16T00:39:14.997Z,83.20
2018-01-16T00:40:14.993Z,84.25
2018-01-16T00:41:14.990Z,86.43
2018-01-16T00:42:14.982Z,86.24
2018-01-16T00:43:14.976Z,86.43
2018-01-16T00:44:14.971Z,87.95
2018-01-16T00:45:14.968Z,89.19
2018-01-16T00:46:14.962Z,88.15
2018-01-16T00:47:14.957Z,87.19
2018-01-16T00:48:14.953Z,87.95
2018-01-16T00:49:14.946Z,87.86
2018-01-16T00:50:14.941Z,88.24
2018-01-16T00:51:14.935Z,87.95
2018-01-16T00:52:14.930Z,87.86
2018-01-16T00:53:14.926Z,87.48
2018-01-16T00:54:14.921Z,87.67
2018-01-16T00:55:14.918Z,87.95
2018-01-16T00:56:14.909Z,87.10
2018-01-16T00:57:14.904Z,86.72
2018-01-16T00:58:14.900Z,86.15
2018-01-16T00:59:14.894Z,84.34
2018-01-16T01:00:14.892Z,86.15
2018-01-16T01:01:14.883Z,87.10
2018-01-16T01:02:14.877Z,87.38
2018-01-16T01:03:14.871Z,86.82
2018-01-16T01:04:14.866Z,87.01
2018-01-16T01:05:14.861Z,88.15
2018-01-16T01:06:14.857Z,87.19
2018-01-16T01:07:14.851Z,87.01
2018-01-16T01:08:14.846Z,86.24
2018-01-16T01:09:14.841Z,85.96
2018-01-16T01:10:14.836Z,86.15
2018-01-16T01:11:14.830Z,86.43
2018-01-16T01:12:14.824Z,90.33
2018-01-16T01:13:14.819Z,89.95
2018-01-16T01:14:14.815Z,89.38
2018-01-16T01:15:14.807Z,91.66
2018-01-16T01:16:14.802Z,91.94
2018-01-16T01:17:14.797Z,91.19
2018-01-16T01:18:14.792Z,90.52
2018-01-16T01:19:14.786Z,91.56
2018-01-16T01:20:14.781Z,90.80
2018-01-16T01:21:14.776Z,89.95
2018-01-16T01:22:14.771Z,90.33
2018-01-16T01:23:14.765Z,89.86
2018-01-16T01:24:14.760Z,90.99
2018-01-16T01:25:14.756Z,90.99
2018-01-16T01:26:14.749Z,91.85
2018-01-16T01:27:14.744Z,90.99
2018-01-16T01:28:14.741Z,91.94
2018-01-16T01:29:14.732Z,93.46
2018-01-16T01:30:14.728Z,95.46
2018-01-16T01:31:14.721Z,95.27
2018-01-16T01:32:14.717Z,94.23
2018-01-16T01:33:14.711Z,93.27
2018-01-16T01:34:14.706Z,94.03
2018-01-16T01:35:14.701Z,93.27
2018-01-16T01:36:14.696Z,92.47
2018-01-16T01:37:14.690Z,93.32
2018-01-16T01:38:14.685Z,95.75
2018-01-16T01:39:14.678Z,94.65
2018-01-16T01:40:14.673Z,95.08
2018-01-16T01:41:14.668Z,94.56
2018-01-16T01:42:14.663Z,93.13
2018-01-16T01:43:14.656Z,93.99
2018-01-16T01:44:14.650Z,94.18
2018-01-16T01:45:14.647Z,93.70
2018-01-16T01:46:14.641Z,93.89
2018-01-16T01:47:14.636Z,93.13
2018-01-16T01:48:14.630Z,93.41
2018-01-16T01:49:14.626Z,93.41
2018-01-16T01:50:14.620Z,92.28
2018-01-16T01:51:14.614Z,91.89
2018-01-16T01:52:14.609Z,91.71
2018-01-16T01:53:14.603Z,91.24
2018-01-16T01:54:14.598Z,91.04
2018-01-16T01:55:14.591Z,91.14
2018-01-16T01:56:14.588Z,91.04
2018-01-16T01:57:14.582Z,90.85
2018-01-16T01:58:14.576Z,90.95
2018-01-16T01:59:14.569Z,90.57
2018-01-16T02:00:14.566Z,90.66
2018-01-16T02:01:14.559Z,90.95
2018-01-16T02:02:14.555Z,90.76
2018-01-16T02:03:14.549Z,90.19
2018-01-16T02:04:14.543Z,90.57
2018-01-16T02:05:14.540Z,90.85
2018-01-16T02:06:14.533Z,90.95
2018-01-16T02:07:14.527Z,91.24
2018-01-16T02:08:14.521Z,91.04
2018-01-16T02:09:14.517Z,91.14
2018-01-16T02:10:14.511Z,91.52
2018-01-16T02:11:14.506Z,91.61
2018-01-16T02:12:14.500Z,92.47
2018-01-16T02:13:14.494Z,93.51
2018-01-16T02:14:14.490Z,93.13
2018-01-16T02:15:14.483Z,92.94
2018-01-16T02:16:14.479Z,94.18
2018-01-16T02:17:14.474Z,94.84
2018-01-16T02:18:14.468Z,94.46
2018-01-16T02:19:14.461Z,94.65
2018-01-16T02:20:14.456Z,93.89
2018-01-16T02:21:14.450Z,93.89
2018-01-16T02:22:14.445Z,93.99
2018-01-16T02:23:14.439Z,93.51
2018-01-16T02:24:14.434Z,94.56
2018-01-16T02:25:14.432Z,93.04
2018-01-16T02:26:14.425Z,91.71
2018-01-16T02:27:14.418Z,91.04
2018-01-16T02:28:14.413Z,91.14
2018-01-16T02:29:14.408Z,90.85
2018-01-16T02:30:14.403Z,91.04
2018-01-16T02:31:14.396Z,90.95
2018-01-16T02:32:14.391Z,91.33
2018-01-16T02:33:14.386Z,90.76
2018-01-16T02:34:14.379Z,91.42
2018-01-16T02:35:14.374Z,90.76
2018-01-16T02:36:14.369Z,91.71
2018-01-16T02:37:14.365Z,93.51
2018-01-16T02:38:14.357Z,92.37
2018-01-16T02:39:14.352Z,93.13
2018-01-16T02:40:14.346Z,94.18
2018-01-16T02:41:14.379Z,93.32
2018-01-16T02:42:14.337Z,92.85
2018-01-16T02:43:14.330Z,92.09
2018-01-16T02:44:14.325Z,92.56
2018-01-16T02:45:14.320Z,92.56
2018-01-16T02:46:14.313Z,91.99
2018-01-16T02:47:14.307Z,91.42
2018-01-16T02:48:14.302Z,90.66
2018-01-16T02:49:14.298Z,91.38
2018-01-16T02:50:14.292Z,90.81
2018-01-16T02:51:14.285Z,90.81
2018-01-16T02:52:14.280Z,91.00
2018-01-16T02:53:14.275Z,90.52
2018-01-16T02:54:14.270Z,91.00
2018-01-16T02:55:14.262Z,90.43
2018-01-16T02:56:14.257Z,89.58
2018-01-16T02:57:14.253Z,89.10
2018-01-16T02:58:14.246Z,89.00
2018-01-16T02:59:14.242Z,88.62
2018-01-16T03:00:14.236Z,88.62
2018-01-16T03:01:14.231Z,88.15
2018-01-16T03:02:14.224Z,87.96
2018-01-16T03:03:14.220Z,87.39
2018-01-16T03:04:14.213Z,86.91
2018-01-16T03:05:14.207Z,87.01
2018-01-16T03:06:14.202Z,87.11
2018-01-16T03:07:14.196Z,86.63
2018-01-16T03:08:14.194Z,86.82
2018-01-16T03:09:14.185Z,86.54
2018-01-16T03:10:14.180Z,85.97
2018-01-16T03:11:14.174Z,86.16
2018-01-16T03:12:14.169Z,86.07
2018-01-16T03:13:14.163Z,86.16
2018-01-16T03:14:14.158Z,86.16
2018-01-16T03:15:14.151Z,85.87
2018-01-16T03:16:14.146Z,86.63
2018-01-16T03:17:14.141Z,85.49
2018-01-16T03:18:14.135Z,86.63
2018-01-16T03:19:14.129Z,86.54
2018-01-16T03:20:14.123Z,86.72
2018-01-16T03:21:14.118Z,86.07
2018-01-16T03:22:14.113Z,86.54
2018-01-16T03:23:14.106Z,86.44
2018-01-16T03:24:14.101Z,86.54
2018-01-16T03:25:14.097Z,86.35
2018-01-16T03:26:14.090Z,86.25
2018-01-16T03:27:14.085Z,86.44
2018-01-16T03:28:14.077Z,86.35
2018-01-16T03:29:14.074Z,86.44
2018-01-16T03:30:14.074Z,86.54
2018-01-16T03:31:14.061Z,87.11
2018-01-16T03:32:14.056Z,87.11
2018-01-16T03:33:14.051Z,86.82
2018-01-16T03:34:14.045Z,86.82
2018-01-16T03:35:14.041Z,87.20
2018-01-16T03:36:14.033Z,87.77
2018-01-16T03:37:14.027Z,87.20
2018-01-16T03:38:14.021Z,87.01
2018-01-16T03:39:14.017Z,87.20
2018-01-16T03:40:14.018Z,86.91
2018-01-16T03:41:14.004Z,87.11
2018-01-16T03:42:14.001Z,87.20
2018-01-16T03:43:13.993Z,87.01
2018-01-16T03:44:13.987Z,87.30
2018-01-16T03:45:13.984Z,87.49
2018-01-16T03:46:13.976Z,87.11
2018-01-16T03:47:13.970Z,87.68
2018-01-16T03:48:13.965Z,87.11
2018-01-16T03:49:13.960Z,86.91
2018-01-16T03:50:13.954Z,87.30
2018-01-16T03:51:13.948Z,86.35
2018-01-16T03:52:13.941Z,85.68
2018-01-16T03:53:13.936Z,86.44
2018-01-16T03:54:13.932Z,86.54
2018-01-16T03:55:13.924Z,86.44
2018-01-16T03:56:13.919Z,86.63
2018-01-16T03:57:13.952Z,86.35
2018-01-16T03:58:13.909Z,86.07
2018-01-16T03:59:13.903Z,85.68
2018-01-16T04:00:13.896Z,86.77
2018-01-16T04:01:13.890Z,85.68
2018-01-16T04:02:13.885Z,86.39
2018-01-16T04:03:13.879Z,87.15
2018-01-16T04:04:13.874Z,87.30
2018-01-16T04:05:13.867Z,87.24
2018-01-16T04:06:13.863Z,87.15
2018-01-16T04:07:13.856Z,88.20
2018-01-16T04:08:13.850Z,87.91
2018-01-16T04:09:13.845Z,88.57
2018-01-16T04:10:13.840Z,87.91
2018-01-16T04:11:13.832Z,87.87
2018-01-16T04:12:13.829Z,88.67
2018-01-16T04:13:13.821Z,90.95
2018-01-16T04:14:13.816Z,90.38
2018-01-16T04:15:13.811Z,89.72
2018-01-16T04:16:13.804Z,90.95
2018-01-16T04:17:13.800Z,90.28
2018-01-16T04:18:13.794Z,90.19
2018-01-16T04:19:13.788Z,90.28
2018-01-16T04:20:13.784Z,89.62
2018-01-16T04:21:13.776Z,89.14
2018-01-16T04:22:13.772Z,88.95
2018-01-16T04:23:13.766Z,91.33
2018-01-16T04:24:13.760Z,90.14
2018-01-16T04:25:13.754Z,88.91
2018-01-16T04:26:13.748Z,89.39
2018-01-16T04:27:13.742Z,87.68
2018-01-16T04:28:13.737Z,87.96
2018-01-16T04:29:13.730Z,87.87
2018-01-16T04:30:13.727Z,86.35
2018-01-16T04:31:13.719Z,85.49
2018-01-16T04:32:13.712Z,85.87
2018-01-16T04:33:13.708Z,86.44
2018-01-16T04:34:13.702Z,85.68
2018-01-16T04:35:13.695Z,86.16
2018-01-16T04:36:13.691Z,87.11
2018-01-16T04:37:13.685Z,87.96
2018-01-16T04:38:13.679Z,89.00
2018-01-16T04:39:13.673Z,88.34
2018-01-16T04:40:13.666Z,91.75
2018-01-16T04:41:13.662Z,94.13
2018-01-16T04:42:13.655Z,95.46
2018-01-16T04:43:13.649Z,94.13
2018-01-16T04:44:13.643Z,95.65
2018-01-16T04:45:13.637Z,95.07
2018-01-16T04:46:13.632Z,95.17
2018-01-16T04:47:13.626Z,95.17
2018-01-16T04:48:13.619Z,94.32
2018-01-16T04:49:13.613Z,93.27
2018-01-16T04:50:13.608Z,92.80
2018-01-16T04:51:13.601Z,92.71
2018-01-16T04:52:13.596Z,92.42
2018-01-16T04:53:13.590Z,92.52
2018-01-16T04:54:13.584Z,91.28
2018-01-16T04:55:13.578Z,90.71
2018-01-16T04:56:13.572Z,90.62
2018-01-16T04:57:13.568Z,89.67
2018-01-16T04:58:13.561Z,90.24
2018-01-16T04:59:13.554Z,90.05
2018-01-16T05:00:13.549Z,91.38
2018-01-16T05:01:13.544Z,90.90
2018-01-16T05:02:13.537Z,90.90
2018-01-16T05:03:13.531Z,89.67
2018-01-16T05:04:13.526Z,90.71
2018-01-16T05:05:13.520Z,90.43
2018-01-16T05:06:13.513Z,89.58
2018-01-16T05:07:13.507Z,90.62
2018-01-16T05:08:13.505Z,89.76
2018-01-16T05:09:13.495Z,90.24
2018-01-16T05:10:13.491Z,90.90
2018-01-16T05:11:13.483Z,89.86
2018-01-16T05:12:13.479Z,90.71
2018-01-16T05:13:13.472Z,90.81
2018-01-16T05:14:13.467Z,91.09
2018-01-16T05:15:13.460Z,90.81
2018-01-16T05:16:13.456Z,89.67
2018-01-16T05:17:13.450Z,90.43
2018-01-16T05:18:13.444Z,91.66
2018-01-16T05:19:13.437Z,92.99
2018-01-16T05:20:13.431Z,92.33
2018-01-16T05:21:13.426Z,92.71
2018-01-16T05:22:13.420Z,93.27
2018-01-16T05:23:13.414Z,93.08
2018-01-16T05:24:13.409Z,93.18
2018-01-16T05:25:13.403Z,92.42
2018-01-16T05:26:13.397Z,92.52
2018-01-16T05:27:13.391Z,92.42
2018-01-16T05:28:13.384Z,91.94
2018-01-16T05:29:13.379Z,94.23
2018-01-16T05:30:13.373Z,93.94
2018-01-16T05:31:13.367Z,94.13
2018-01-16T05:32:13.362Z,94.03
2018-01-16T05:33:13.356Z,93.46
2018-01-16T05:34:13.350Z,93.27
2018-01-16T05:35:13.344Z,93.65
2018-01-16T05:36:13.340Z,92.42
2018-01-16T05:37:13.335Z,92.33
2018-01-16T05:38:13.327Z,91.28
2018-01-16T05:39:13.321Z,91.19
2018-01-16T05:40:13.314Z,90.81
2018-01-16T05:41:13.309Z,91.28
2018-01-16T05:42:13.304Z,91.28
2018-01-16T05:43:13.297Z,91.56
2018-01-16T05:44:13.292Z,92.37
2018-01-16T05:45:13.288Z,91.94
2018-01-16T05:46:13.280Z,92.80
2018-01-16T05:47:13.274Z,92.85
2018-01-16T05:48:13.267Z,93.51
2018-01-16T05:49:13.262Z,92.85
2018-01-16T05:50:13.256Z,93.41
2018-01-16T05:51:13.251Z,92.56
2018-01-16T05:52:13.246Z,93.32
2018-01-16T05:53:13.238Z,93.13
2018-01-16T05:54:13.234Z,93.41
2018-01-16T05:55:13.228Z,92.75
2018-01-16T05:56:13.221Z,92.85
2018-01-16T05:57:13.216Z,92.47
2018-01-16T05:58:13.211Z,92.47
2018-01-16T05:59:13.204Z,91.61
2018-01-16T06:00:13.198Z,92.28
2018-01-16T06:01:13.193Z,92.85
2018-01-16T06:02:13.187Z,91.99
2018-01-16T06:03:13.181Z,92.18
2018-01-16T06:04:13.176Z,91.71
2018-01-16T06:05:13.169Z,91.99
2018-01-16T06:06:13.164Z,91.61
2018-01-16T06:07:13.157Z,91.71
2018-01-16T06:08:13.150Z,91.89
2018-01-16T06:09:13.146Z,90.95
2018-01-16T06:10:13.141Z,91.04
2018-01-16T06:11:13.134Z,90.47
2018-01-16T06:12:13.173Z,90.95
2018-01-16T06:13:13.123Z,90.95
2018-01-16T06:14:13.122Z,91.24
2018-01-16T06:15:13.111Z,90.85
2018-01-16T06:16:13.108Z,91.24
2018-01-16T06:17:13.100Z,91.42
2018-01-16T06:18:13.096Z,91.24
2018-01-16T06:19:13.088Z,91.42
2018-01-16T06:20:13.083Z,92.09
2018-01-16T06:21:13.079Z,92.56
2018-01-16T06:22:13.072Z,93.32
2018-01-16T06:23:13.065Z,93.60
2018-01-16T06:24:13.060Z,93.51
2018-01-16T06:25:13.059Z,93.13
2018-01-16T06:26:13.049Z,93.32
2018-01-16T06:27:13.042Z,92.94
2018-01-16T06:28:13.039Z,93.32
2018-01-16T06:29:13.033Z,92.75
2018-01-16T06:30:13.028Z,92.56
2018-01-16T06:31:13.020Z,93.32
2018-01-16T06:32:13.015Z,92.94
2018-01-16T06:33:13.009Z,93.89
2018-01-16T06:34:13.005Z,93.32
2018-01-16T06:35:12.997Z,93.60
2018-01-16T06:36:12.991Z,93.89
2018-01-16T06:37:12.987Z,95.12
2018-01-16T06:38:12.981Z,95.12
2018-01-16T06:39:12.975Z,95.51
2018-01-16T06:40:12.967Z,94.93
2018-01-16T06:41:12.963Z,95.41
2018-01-16T06:42:12.958Z,95.41
2018-01-16T06:43:12.950Z,94.84
2018-01-16T06:44:12.945Z,94.74
2018-01-16T06:45:12.941Z,94.27
2018-01-16T06:46:12.936Z,94.27
2018-01-16T06:47:12.929Z,94.08
2018-01-16T06:48:12.923Z,94.08
2018-01-16T06:49:12.918Z,93.32
2018-01-16T06:50:12.913Z,94.08
2018-01-16T06:51:12.906Z,94.08
2018-01-16T06:52:12.900Z,93.32
2018-01-16T06:53:12.895Z,93.70
2018-01-16T06:54:12.890Z,94.08
2018-01-16T06:55:12.883Z,94.65
2018-01-16T06:56:12.877Z,94.46
2018-01-16T06:57:12.873Z,94.46
2018-01-16T06:58:12.866Z,93.99
2018-01-16T06:59:12.863Z,94.08
2018-01-16T07:00:12.855Z,93.70
2018-01-16T07:01:12.850Z,93.04
2018-01-16T07:02:12.844Z,94.74
2018-01-16T07:03:12.837Z,93.89
2018-01-16T07:04:12.834Z,93.13
2018-01-16T07:05:12.853Z,93.13
2018-01-16T07:06:12.822Z,92.66
2018-01-16T07:07:12.816Z,92.75
2018-01-16T07:08:12.811Z,92.56
2018-01-16T07:09:12.804Z,93.04
2018-01-16T07:10:12.799Z,93.51
2018-01-16T07:11:12.793Z,92.56
2018-01-16T07:12:12.787Z,93.23
2018-01-16T07:13:12.781Z,93.13
2018-01-16T07:14:12.775Z,92.47
2018-01-16T07:15:12.769Z,92.56
2018-01-16T07:16:12.770Z,91.80
2018-01-16T07:17:12.758Z,91.89
2018-01-16T07:18:12.752Z,91.99
2018-01-16T07:19:12.745Z,92.47
2018-01-16T07:20:12.741Z,93.51
2018-01-16T07:21:12.737Z,92.75
2018-01-16T07:22:12.730Z,93.04
2018-01-16T07:23:12.724Z,92.47
2018-01-16T07:24:12.719Z,91.61
2018-01-16T07:25:12.711Z,92.37
2018-01-16T07:26:12.706Z,92.75
2018-01-16T07:27:12.701Z,91.89
2018-01-16T07:28:12.695Z,92.37
2018-01-16T07:29:12.689Z,92.18
2018-01-16T07:30:12.684Z,93.13
2018-01-16T07:31:12.676Z,93.32
2018-01-16T07:32:12.672Z,92.56
2018-01-16T07:33:12.666Z,93.32
2018-01-16T07:34:12.661Z,93.89
2018-01-16T07:35:12.654Z,94.08
2018-01-16T07:36:12.648Z,95.51
2018-01-16T07:37:12.644Z,94.32
2018-01-16T07:38:12.638Z,94.27
2018-01-16T07:39:12.632Z,94.60
2018-01-16T07:40:12.628Z,94.74
2018-01-16T07:41:12.621Z,94.23
2018-01-16T07:42:12.614Z,94.98
2018-01-16T07:43:12.609Z,94.89
2018-01-16T07:44:12.602Z,94.60
2018-01-16T07:45:12.596Z,96.03
2018-01-16T07:46:12.591Z,95.07
2018-01-16T07:47:12.585Z,95.93
2018-01-16T07:48:12.579Z,96.12
2018-01-16T07:49:12.573Z,95.93
2018-01-16T07:50:12.568Z,96.88
2018-01-16T07:51:12.561Z,96.22
2018-01-16T07:52:12.555Z,96.59
2018-01-16T07:53:12.552Z,97.74
2018-01-16T07:54:12.544Z,98.02
2018-01-16T07:55:12.539Z,98.59
2018-01-16T07:56:12.532Z,97.36
2018-01-16T07:57:12.526Z,97.69
2018-01-16T07:58:12.522Z,96.69
2018-01-16T07:59:12.517Z,97.26
2018-01-16T08:00:12.509Z,97.45
2018-01-16T08:01:12.505Z,97.45
2018-01-16T08:02:12.498Z,98.30
2018-01-16T08:03:12.491Z,97.83
2018-01-16T08:04:12.486Z,97.26
2018-01-16T08:05:12.480Z,96.12
2018-01-16T08:06:12.474Z,95.55
2018-01-16T08:07:12.468Z,93.56
2018-01-16T08:08:12.461Z,93.75
2018-01-16T08:09:12.456Z,97.45
2018-01-16T08:10:12.451Z,94.70
2018-01-16T08:11:12.443Z,96.41
2018-01-16T08:12:12.438Z,94.74
2018-01-16T08:13:12.432Z,93.23
2018-01-16T08:14:12.426Z,94.27
2018-01-16T08:15:12.425Z,94.56
2018-01-16T08:16:12.414Z,92.85
2018-01-16T08:17:12.408Z,91.05
2018-01-16T08:18:12.402Z,91.85
2018-01-16T08:19:12.394Z,90.19
2018-01-16T08:20:12.389Z,91.95
2018-01-16T08:21:12.385Z,89.86
2018-01-16T08:22:12.378Z,90.05
2018-01-16T08:23:12.372Z,89.67
2018-01-16T08:24:12.365Z,89.39
2018-01-16T08:25:12.358Z,89.34
2018-01-16T08:26:12.351Z,89.01
2018-01-16T08:27:12.345Z,89.72
2018-01-16T08:28:12.339Z,87.83
2018-01-16T08:29:12.332Z,89.53
2018-01-16T08:30:12.326Z,88.21
2018-01-16T08:31:12.320Z,88.21
2018-01-16T08:32:12.312Z,87.45
2018-01-16T08:33:12.305Z,87.45
2018-01-16T08:34:12.298Z,86.60
2018-01-16T08:35:12.293Z,87.73
2018-01-16T08:36:12.285Z,86.79
2018-01-16T08:37:12.278Z,85.84
2018-01-16T08:38:12.272Z,86.69
2018-01-16T08:39:12.264Z,86.79
2018-01-16T08:40:12.258Z,85.36
2018-01-16T08:41:12.252Z,85.65
2018-01-16T08:42:12.245Z,86.41
2018-01-16T08:43:12.236Z,87.07
2018-01-16T08:44:12.232Z,85.74
2018-01-16T08:45:12.223Z,85.55
2018-01-16T08:46:12.217Z,85.65
2018-01-16T08:47:12.210Z,85.50
2018-01-16T08:48:12.202Z,85.41
2018-01-16T08:49:12.196Z,85.22
2018-01-16T08:50:12.188Z,85.27
2018-01-16T08:51:12.181Z,85.36
2018-01-16T08:52:12.174Z,85.84
2018-01-16T08:53:12.168Z,85.17
2018-01-16T08:54:12.161Z,84.42
2018-01-16T08:55:12.153Z,85.17
2018-01-16T08:56:12.148Z,85.08
2018-01-16T08:57:12.141Z,84.94
2018-01-16T08:58:12.133Z,84.89
2018-01-16T08:59:12.126Z,85.17
2018-01-16T09:00:12.118Z,86.12
2018-01-16T09:01:12.113Z,85.36
2018-01-16T09:02:12.105Z,86.69
2018-01-16T09:03:12.098Z,85.84
2018-01-16T09:04:12.091Z,85.36
2018-01-16T09:05:12.085Z,85.93
2018-01-16T09:06:12.077Z,84.80
2018-01-16T09:07:12.070Z,85.36
2018-01-16T09:08:12.063Z,85.17
2018-01-16T09:09:12.057Z,85.36
2018-01-16T09:10:12.050Z,85.74
2018-01-16T09:11:12.041Z,85.74
2018-01-16T09:12:12.035Z,87.73
2018-01-16T09:13:12.028Z,86.88
2018-01-16T09:14:12.022Z,86.88
2018-01-16T09:15:12.013Z,88.11
2018-01-16T09:16:12.006Z,87.16
2018-01-16T09:17:12.001Z,86.18
2018-01-16T09:18:11.993Z,85.42
2018-01-16T09:19:11.985Z,85.51
2018-01-16T09:20:11.979Z,85.42
2018-01-16T09:21:11.970Z,85.42
2018-01-16T09:22:11.965Z,84.66
2018-01-16T09:23:11.957Z,84.85
2018-01-16T09:24:11.949Z,84.75
2018-01-16T09:25:11.943Z,84.66
2018-01-16T09:26:11.935Z,85.32
2018-01-16T09:27:11.927Z,84.28
2018-01-16T09:28:11.920Z,84.47
2018-01-16T09:29:11.915Z,84.47
2018-01-16T09:30:11.909Z,84.47
2018-01-16T09:31:11.897Z,83.81
2018-01-16T09:32:11.890Z,83.90
2018-01-16T09:33:11.886Z,83.71
2018-01-16T09:34:11.876Z,84.09
2018-01-16T09:35:11.868Z,84.38
2018-01-16T09:36:11.860Z,84.19
2018-01-16T09:37:11.854Z,84.09
2018-01-16T09:38:11.846Z,84.85
2018-01-16T09:39:11.837Z,84.75
2018-01-16T09:40:11.830Z,84.75
2018-01-16T09:41:11.823Z,84.66
2018-01-16T09:42:11.816Z,84.61
2018-01-16T09:43:11.807Z,84.14
2018-01-16T09:44:11.802Z,84.14
2018-01-16T09:45:11.795Z,83.52
2018-01-16T09:46:11.786Z,83.71
2018-01-16T09:47:11.778Z,83.90
2018-01-16T09:48:11.771Z,84.00
2018-01-16T09:49:11.761Z,83.43
2018-01-16T09:50:11.756Z,84.00
2018-01-16T09:51:11.747Z,83.58
2018-01-16T09:52:11.738Z,83.86
2018-01-16T09:53:11.733Z,83.39
2018-01-16T09:54:11.730Z,83.39
2018-01-16T09:55:11.715Z,83.33
2018-01-16T09:56:11.709Z,83.01
2018-01-16T09:57:11.701Z,82.95
2018-01-16T09:58:11.692Z,83.05
2018-01-16T09:59:11.687Z,83.14
2018-01-16T10:00:11.679Z,82.39
2018-01-16T10:01:11.671Z,83.90
2018-01-16T10:02:11.666Z,83.52
2018-01-16T10:03:11.653Z,84.00
2018-01-16T10:04:11.646Z,83.81
2018-01-16T10:05:11.641Z,83.71
2018-01-16T10:06:11.631Z,84.00
2018-01-16T10:07:11.623Z,84.19
2018-01-16T10:08:11.615Z,84.28
2018-01-16T10:09:11.608Z,84.19
2018-01-16T10:10:11.603Z,83.81
2018-01-16T10:11:11.592Z,84.09
2018-01-16T10:12:11.588Z,84.19
2018-01-16T10:13:11.580Z,84.28
2018-01-16T10:14:11.572Z,83.75
2018-01-16T10:15:11.562Z,83.75
2018-01-16T10:16:11.555Z,84.80
2018-01-16T10:17:11.551Z,84.23
2018-01-16T10:18:11.542Z,85.17
2018-01-16T10:19:11.533Z,85.46
2018-01-16T10:20:11.525Z,86.03
2018-01-16T10:21:11.518Z,85.84
2018-01-16T10:22:11.513Z,86.88
2018-01-16T10:23:11.504Z,88.68
2018-01-16T10:24:11.496Z,87.45
2018-01-16T10:25:11.490Z,88.30
2018-01-16T10:26:11.482Z,86.98
2018-01-16T10:27:11.475Z,87.07
2018-01-16T10:28:11.468Z,88.68
2018-01-16T10:29:11.461Z,90.48
2018-01-16T10:30:11.455Z,89.53
2018-01-16T10:31:11.447Z,89.91
2018-01-16T10:32:11.439Z,90.20
2018-01-16T10:33:11.434Z,90.67
2018-01-16T10:34:11.427Z,90.62
2018-01-16T10:35:11.418Z,90.62
2018-01-16T10:36:11.411Z,90.53
2018-01-16T10:37:11.405Z,91.00
2018-01-16T10:38:11.398Z,92.14
2018-01-16T10:39:11.389Z,91.85
2018-01-16T10:40:11.382Z,91.28
2018-01-16T10:41:11.375Z,93.65
2018-01-16T10:42:11.370Z,91.76
2018-01-16T10:43:11.361Z,91.47
2018-01-16T10:44:11.355Z,91.66
2018-01-16T10:45:11.347Z,90.24
2018-01-16T10:46:11.341Z,90.43
2018-01-16T10:47:11.332Z,90.62
2018-01-16T10:48:11.327Z,92.71
2018-01-16T10:49:11.318Z,92.04
2018-01-16T10:50:11.313Z,94.13
2018-01-16T10:51:11.306Z,97.31
2018-01-16T10:52:11.298Z,96.64
2018-01-16T10:53:11.292Z,96.45
2018-01-16T10:54:11.284Z,95.98
2018-01-16T10:55:11.318Z,98.07
2018-01-16T10:56:11.270Z,98.35
2018-01-16T10:57:11.263Z,96.17
2018-01-16T10:58:11.257Z,95.88
2018-01-16T10:59:11.250Z,95.55
2018-01-16T11:00:11.243Z,93.56
2018-01-16T11:01:11.238Z,94.89
2018-01-16T11:02:11.230Z,95.45
2018-01-16T11:03:11.223Z,94.32
2018-01-16T11:04:11.218Z,91.90
2018-01-16T11:05:11.210Z,94.93
2018-01-16T11:06:11.204Z,94.79
2018-01-16T11:07:11.196Z,94.70
2018-01-16T11:08:11.191Z,93.13
2018-01-16T11:09:11.183Z,92.94
2018-01-16T11:10:11.176Z,93.56
2018-01-16T11:11:11.171Z,92.90
2018-01-16T11:12:11.165Z,91.99
2018-01-16T11:13:11.158Z,93.89
2018-01-16T11:14:11.158Z,95.31
2018-01-16T11:15:11.143Z,97.31
2018-01-16T11:16:11.138Z,99.99
2018-01-16T11:17:11.132Z,98.59
2018-01-16T11:18:11.125Z,99.39
2018-01-16T11:19:11.118Z,99.30
2018-01-16T11:20:11.112Z,99.30
2018-01-16T11:21:11.106Z,99.99
2018-01-16T11:22:11.101Z,99.49
2018-01-16T11:23:11.093Z,99.49
2018-01-16T11:24:11.087Z,98.54
2018-01-16T11:25:11.080Z,98.16
2018-01-16T11:26:11.075Z,98.07
2018-01-16T11:27:11.069Z,97.40
2018-01-16T11:28:11.064Z,98.54
2018-01-16T11:29:11.057Z,99.77
2018-01-16T11:30:11.053Z,99.99
2018-01-16T11:31:11.043Z,99.99
2018-01-16T11:32:11.038Z,99.99
2018-01-16T11:33:11.032Z,98.30
2018-01-16T11:34:11.027Z,99.73
2018-01-16T11:35:11.018Z,99.82
2018-01-16T11:36:11.013Z,99.99
2018-01-16T11:37:11.013Z,99.99
2018-01-16T11:38:11.001Z,99.99
2018-01-16T11:39:10.994Z,99.99
2018-01-16T11:40:10.989Z,99.39
2018-01-16T11:41:10.982Z,99.30
2018-01-16T11:42:10.977Z,99.11
2018-01-16T11:43:10.970Z,98.44
2018-01-16T11:44:10.964Z,98.82
2018-01-16T11:45:10.958Z,95.98
2018-01-16T11:46:10.955Z,98.07
2018-01-16T11:47:10.947Z,97.59
2018-01-16T11:48:10.940Z,97.88
2018-01-16T11:49:10.936Z,97.50
2018-01-16T11:50:10.930Z,96.26
2018-01-16T11:51:10.922Z,95.31
2018-01-16T11:52:10.917Z,95.50
2018-01-16T11:53:10.911Z,96.36
2018-01-16T11:54:10.906Z,94.84
2018-01-16T11:55:10.899Z,94.27
2018-01-16T11:56:10.894Z,94.93
2018-01-16T11:57:10.885Z,96.17
2018-01-16T11:58:10.880Z,95.98
2018-01-16T11:59:10.878Z,97.69
2018-01-16T12:00:10.867Z,98.02
2018-01-16T12:01:10.861Z,99.63
2018-01-16T12:02:10.856Z,98.11
2018-01-16T12:03:10.848Z,97.26
2018-01-16T12:04:10.842Z,97.64
2018-01-16T12:05:10.837Z,98.21
2018-01-16T12:06:10.831Z,98.21
2018-01-16T12:07:10.824Z,98.68
2018-01-16T12:08:10.820Z,98.49
2018-01-16T12:09:10.813Z,99.06
2018-01-16T12:10:10.809Z,99.44
2018-01-16T12:11:10.802Z,98.21
2018-01-16T12:12:10.795Z,98.78
2018-01-16T12:13:10.790Z,99.35
2018-01-16T12:14:10.786Z,98.40
2018-01-16T12:15:10.780Z,99.54
2018-01-16T12:16:10.773Z,99.99
2018-01-16T12:17:10.767Z,99.99
2018-01-16T12:18:10.761Z,99.99
2018-01-16T12:19:10.756Z,99.99
2018-01-16T12:20:10.749Z,99.99
2018-01-16T12:21:10.745Z,99.99
2018-01-16T12:22:10.739Z,99.99
2018-01-16T12:23:10.731Z,99.99
2018-01-16T12:24:10.731Z,99.99
2018-01-16T12:25:10.720Z,99.99
2018-01-16T12:26:10.715Z,99.99
2018-01-16T12:27:10.709Z,99.99
2018-01-16T12:28:10.703Z,99.99
2018-01-16T12:29:10.697Z,99.99
2018-01-16T12:30:10.692Z,99.99
2018-01-16T12:31:10.688Z,99.99
2018-01-16T12:32:10.683Z,99.99
2018-01-16T12:33:10.676Z,99.99
2018-01-16T12:34:10.671Z,99.99
2018-01-16T12:35:10.668Z,99.99
2018-01-16T12:36:10.658Z,99.99
2018-01-16T12:37:10.654Z,99.99
2018-01-16T12:38:10.647Z,99.99
2018-01-16T12:39:10.642Z,99.99
2018-01-16T12:40:10.639Z,99.99
2018-01-16T12:41:10.631Z,99.99
2018-01-16T12:42:10.626Z,99.99
2018-01-16T12:43:10.619Z,99.99
2018-01-16T12:44:10.615Z,99.99
2018-01-16T12:45:10.614Z,99.99
2018-01-16T12:46:10.604Z,99.99
2018-01-16T12:47:10.598Z,99.99
2018-01-16T12:48:10.593Z,99.99
2018-01-16T12:49:10.587Z,99.99
2018-01-16T12:50:10.581Z,99.99
2018-01-16T12:51:10.581Z,99.99
2018-01-16T12:52:10.570Z,99.99